Time;durP1;ratioP1;P1;durP2;ratioP2;P2;SDS_P1;SDS_P2;PMS_P1;PMS_P2;Temp;Humidity;BMP_temperature;BMP_pressure;BME280_temperature;BME280_humidity;BME280_pressure;Samples;Min_cycle;Max_cycle;Signal;HPM_P1;HPM_P2
2023/09/04 00:00:53;;;;;;;6.55;3.40;;;18.00;74.30;;;;;;5035616;28;20343;-68
2023/09/04 00:03:20;;;;;;;6.43;3.47;;;18.00;74.30;;;;;;5036616;28;20030;-68
2023/09/04 00:05:46;;;;;;;6.60;3.40;;;18.00;74.30;;;;;;5036391;28;20034;-68
2023/09/04 00:08:12;;;;;;;6.95;3.45;;;17.90;74.30;;;;;;5033266;28;20521;-68
2023/09/04 00:10:37;;;;;;;6.75;3.08;;;17.90;74.30;;;;;;5036643;28;20123;-68
2023/09/04 00:13:03;;;;;;;6.70;3.20;;;17.90;74.30;;;;;;5035504;28;20036;-68
2023/09/04 00:15:29;;;;;;;6.40;3.38;;;17.90;74.40;;;;;;5045214;28;20065;-68
2023/09/04 00:17:55;;;;;;;6.63;3.88;;;17.90;74.50;;;;;;5049971;28;20053;-68
2023/09/04 00:20:21;;;;;;;6.97;3.40;;;17.80;74.50;;;;;;5031842;28;20021;-68
2023/09/04 00:22:47;;;;;;;7.47;3.80;;;17.80;74.50;;;;;;5037148;28;20055;-68
2023/09/04 00:25:13;;;;;;;7.22;3.67;;;17.80;74.50;;;;;;5035975;28;20052;-68
2023/09/04 00:27:38;;;;;;;6.25;3.47;;;17.80;74.60;;;;;;5032225;28;20029;-68
2023/09/04 00:30:05;;;;;;;7.18;3.70;;;17.80;74.60;;;;;;5029205;28;20116;-68
2023/09/04 00:32:31;;;;;;;6.75;3.88;;;17.80;74.60;;;;;;5069308;28;20108;-69
2023/09/04 00:34:57;;;;;;;6.93;3.58;;;17.70;74.60;;;;;;5046529;28;20108;-68
2023/09/04 00:37:23;;;;;;;7.50;4.15;;;17.70;74.70;;;;;;5019756;28;20099;-68
2023/09/04 00:39:48;;;;;;;7.00;3.90;;;17.70;74.70;;;;;;5027396;28;20034;-68
2023/09/04 00:42:15;;;;;;;6.63;3.97;;;17.70;74.70;;;;;;5068291;28;20032;-68
2023/09/04 00:44:44;;;;;;;7.40;3.75;;;17.70;74.80;;;;;;5028706;28;20370;-69
2023/09/04 00:47:14;;;;;;;6.38;3.63;;;17.70;74.80;;;;;;5035763;28;20458;-68
2023/09/04 00:49:42;;;;;;;6.10;3.60;;;17.70;74.80;;;;;;5033947;28;20442;-68
2023/09/04 00:52:10;;;;;;;6.90;3.90;;;17.70;74.80;;;;;;5024079;28;20187;-68
2023/09/04 00:54:37;;;;;;;6.00;3.58;;;17.70;74.80;;;;;;5039732;28;20516;-69
2023/09/04 00:57:05;;;;;;;7.55;4.15;;;17.60;74.80;;;;;;5047715;28;20470;-68
2023/09/04 00:59:31;;;;;;;7.10;4.20;;;17.60;74.80;;;;;;5033624;28;20055;-68
2023/09/04 01:02:00;;;;;;;7.97;4.03;;;17.60;74.80;;;;;;5034593;28;20025;-68
2023/09/04 01:04:26;;;;;;;6.43;3.55;;;17.60;74.90;;;;;;5033899;28;20033;-68
2023/09/04 01:06:53;;;;;;;6.22;3.63;;;17.60;74.90;;;;;;5030225;28;20017;-68
2023/09/04 01:09:21;;;;;;;6.38;3.60;;;17.60;74.90;;;;;;5029226;28;20461;-68
2023/09/04 01:11:54;;;;;;;7.82;3.85;;;17.60;74.90;;;;;;5045272;28;20332;-68
2023/09/04 01:14:21;;;;;;;6.97;3.97;;;17.50;74.90;;;;;;5058666;28;20026;-68
2023/09/04 01:16:47;;;;;;;7.85;4.25;;;17.50;74.90;;;;;;5035994;28;20366;-68
2023/09/04 01:19:13;;;;;;;7.25;4.07;;;17.50;74.90;;;;;;5033024;28;20034;-68
2023/09/04 01:21:40;;;;;;;8.32;4.30;;;17.50;75.00;;;;;;5035106;28;20021;-68
2023/09/04 01:24:08;;;;;;;6.88;3.80;;;17.50;75.00;;;;;;5035381;28;20025;-68
2023/09/04 01:27:01;;;;;;;7.05;4.07;;;17.50;75.00;;;;;;5051330;28;20033;-68
2023/09/04 01:29:39;;;;;;;9.90;4.38;;;17.40;75.10;;;;;;5028480;28;20120;-68
2023/09/04 01:32:26;;;;;;;7.55;4.15;;;17.40;75.10;;;;;;5018063;28;20057;-67
2023/09/04 01:34:53;;;;;;;7.05;3.97;;;17.40;75.10;;;;;;5008092;28;20026;-68
2023/09/04 01:37:21;;;;;;;7.10;4.07;;;17.40;75.10;;;;;;5033800;28;20099;-68
2023/09/04 01:39:49;;;;;;;8.00;4.20;;;17.40;75.10;;;;;;5023840;28;20028;-68
2023/09/04 01:42:15;;;;;;;6.82;4.18;;;17.40;75.10;;;;;;5013880;28;20026;-68
2023/09/04 01:44:43;;;;;;;7.68;4.18;;;17.30;75.20;;;;;;5032707;28;20476;-68
2023/09/04 01:47:09;;;;;;;8.05;4.38;;;17.30;75.20;;;;;;5029863;28;20022;-68
2023/09/04 01:49:34;;;;;;;7.38;4.20;;;17.30;75.20;;;;;;5021173;28;20465;-68
2023/09/04 01:52:00;;;;;;;7.50;4.32;;;17.30;75.20;;;;;;5033380;28;20120;-68
2023/09/04 01:54:27;;;;;;;7.45;4.13;;;17.30;75.20;;;;;;5034489;28;20022;-68
2023/09/04 01:56:52;;;;;;;7.55;4.40;;;17.30;75.20;;;;;;5030590;28;20402;-68
2023/09/04 01:59:18;;;;;;;8.77;4.93;;;17.30;75.20;;;;;;5034084;28;20018;-69
2023/09/04 02:01:44;;;;;;;7.15;4.63;;;17.30;75.30;;;;;;5033556;28;20019;-68
2023/09/04 02:04:09;;;;;;;7.60;4.25;;;17.30;75.20;;;;;;5029195;28;20328;-68
2023/09/04 02:06:35;;;;;;;10.73;5.47;;;17.40;75.20;;;;;;5032896;28;20037;-68
2023/09/04 02:09:02;;;;;;;8.95;4.68;;;17.30;75.20;;;;;;5035139;28;20045;-68
2023/09/04 02:11:28;;;;;;;7.85;4.80;;;17.40;75.30;;;;;;5058885;28;20023;-68
2023/09/04 02:13:54;;;;;;;8.00;5.00;;;17.30;75.30;;;;;;5049843;28;20025;-68
2023/09/04 02:16:20;;;;;;;9.05;5.10;;;17.40;75.30;;;;;;5028447;28;20028;-68
2023/09/04 02:18:45;;;;;;;7.75;4.82;;;17.30;75.30;;;;;;5032287;28;20528;-68
2023/09/04 02:21:11;;;;;;;7.97;4.88;;;17.30;75.30;;;;;;5044627;28;20125;-68
2023/09/04 02:23:37;;;;;;;8.18;4.90;;;17.40;75.40;;;;;;5064625;28;20034;-68
2023/09/04 02:26:03;;;;;;;8.50;5.40;;;17.30;75.30;;;;;;5029071;28;20407;-68
2023/09/04 02:28:29;;;;;;;8.45;4.72;;;17.30;76.00;;;;;;5033862;28;20033;-67
2023/09/04 02:30:55;;;;;;;9.65;5.57;;;17.30;75.30;;;;;;5034563;28;20037;-67
2023/09/04 02:33:21;;;;;;;9.40;5.53;;;17.30;75.40;;;;;;5031041;28;20079;-68
2023/09/04 02:35:48;;;;;;;10.18;5.45;;;17.30;75.40;;;;;;5032307;28;20035;-68
2023/09/04 02:38:14;;;;;;;10.10;5.10;;;17.30;75.40;;;;;;5038944;28;20420;-68
2023/09/04 02:40:40;;;;;;;9.25;5.50;;;17.30;75.50;;;;;;5037522;28;20030;-68
2023/09/04 02:43:06;;;;;;;7.68;4.75;;;17.30;75.50;;;;;;5032526;28;20025;-68
2023/09/04 02:45:33;;;;;;;8.45;5.70;;;17.30;75.50;;;;;;5023644;28;20405;-68
2023/09/04 02:47:58;;;;;;;9.80;5.28;;;17.30;75.50;;;;;;5066378;28;20545;-67
2023/09/04 02:50:24;;;;;;;8.73;5.13;;;17.20;75.40;;;;;;5032531;28;20053;-68
2023/09/04 02:52:50;;;;;;;8.27;5.18;;;17.20;75.50;;;;;;5028897;28;20045;-68
2023/09/04 02:55:16;;;;;;;8.68;5.40;;;17.20;75.50;;;;;;5033124;28;20033;-68
2023/09/04 02:57:41;;;;;;;7.93;5.03;;;17.20;75.50;;;;;;5035766;28;20036;-68
2023/09/04 03:00:07;;;;;;;8.02;5.20;;;17.20;75.50;;;;;;5032644;28;20176;-68
2023/09/04 03:02:34;;;;;;;8.13;5.38;;;17.20;75.50;;;;;;5033553;28;20061;-68
2023/09/04 03:05:00;;;;;;;8.85;5.65;;;17.20;75.50;;;;;;5025717;28;20026;-68
2023/09/04 03:07:27;;;;;;;8.55;5.50;;;17.20;75.40;;;;;;5036221;28;20025;-68
2023/09/04 03:09:58;;;;;;;7.88;5.43;;;17.20;75.40;;;;;;5022037;28;20166;-68
2023/09/04 03:12:26;;;;;;;8.73;6.10;;;17.20;75.30;;;;;;5043436;28;20447;-68
2023/09/04 03:15:14;;;;;;;11.68;5.70;;;17.20;75.40;;;;;;5048753;28;20025;-68
2023/09/04 03:17:39;;;;;;;10.48;5.18;;;17.20;75.40;;;;;;5063303;28;20036;-68
2023/09/04 03:20:09;;;;;;;10.30;6.35;;;17.20;75.40;;;;;;5032137;28;20029;-68
2023/09/04 03:22:35;;;;;;;8.23;5.43;;;17.20;75.40;;;;;;5033017;28;20064;-68
2023/09/04 03:25:01;;;;;;;9.00;5.30;;;17.20;75.50;;;;;;5012967;28;20030;-68
2023/09/04 03:27:30;;;;;;;8.88;6.00;;;17.10;75.50;;;;;;5036750;28;20018;-68
2023/09/04 03:29:56;;;;;;;8.65;6.18;;;17.10;75.60;;;;;;5033062;28;20442;-68
2023/09/04 03:32:22;;;;;;;9.20;5.80;;;17.10;75.60;;;;;;5032919;28;20473;-68
2023/09/04 03:34:48;;;;;;;9.55;5.95;;;17.10;75.60;;;;;;5068760;28;20037;-68
2023/09/04 03:37:14;;;;;;;9.77;6.03;;;17.10;75.70;;;;;;5038356;28;20063;-68
2023/09/04 03:39:40;;;;;;;10.25;5.75;;;17.10;75.70;;;;;;5030940;28;20031;-68
2023/09/04 03:42:06;;;;;;;14.07;6.35;;;17.00;75.70;;;;;;5033101;28;20136;-68
2023/09/04 03:44:32;;;;;;;9.98;6.43;;;17.00;75.70;;;;;;5023155;28;20057;-68
2023/09/04 03:46:58;;;;;;;9.98;6.28;;;17.00;75.70;;;;;;5028423;28;20057;-68
2023/09/04 03:49:24;;;;;;;9.30;5.93;;;17.00;75.70;;;;;;5033322;28;20057;-68
2023/09/04 03:51:50;;;;;;;9.18;6.28;;;17.00;75.70;;;;;;5035628;28;20128;-68
2023/09/04 03:54:16;;;;;;;10.43;6.45;;;17.00;75.70;;;;;;5045324;28;20025;-68
2023/09/04 03:56:41;;;;;;;10.15;6.65;;;17.00;75.70;;;;;;5033875;28;20029;-68
2023/09/04 03:59:07;;;;;;;10.35;6.80;;;17.00;75.70;;;;;;5066963;28;20029;-68
2023/09/04 04:01:33;;;;;;;11.68;7.25;;;17.00;75.70;;;;;;5033202;28;20029;-68
2023/09/04 04:03:59;;;;;;;10.70;6.38;;;17.10;75.60;;;;;;5018473;28;20026;-68
2023/09/04 04:06:26;;;;;;;9.60;6.63;;;17.00;75.50;;;;;;5034518;28;20033;-68
2023/09/04 04:08:54;;;;;;;9.23;6.50;;;17.10;75.60;;;;;;5038633;28;20393;-67
2023/09/04 04:11:20;;;;;;;10.90;7.10;;;17.10;75.50;;;;;;5034418;28;20037;-68
2023/09/04 04:13:47;;;;;;;9.30;6.65;;;17.10;75.50;;;;;;5034359;28;20033;-67
2023/09/04 04:16:12;;;;;;;10.88;6.72;;;17.10;75.40;;;;;;5019805;28;20036;-68
2023/09/04 04:18:38;;;;;;;10.55;6.70;;;17.10;75.40;;;;;;5033952;28;20025;-68
2023/09/04 04:21:05;;;;;;;10.10;6.65;;;17.10;75.40;;;;;;5036066;28;20037;-68
2023/09/04 04:23:33;;;;;;;9.23;6.18;;;17.10;75.40;;;;;;5028577;28;20032;-68
2023/09/04 04:25:59;;;;;;;9.98;6.93;;;17.10;75.40;;;;;;5034603;28;20025;-68
2023/09/04 04:28:25;;;;;;;9.88;6.88;;;17.10;75.40;;;;;;5046555;28;20025;-67
2023/09/04 04:30:52;;;;;;;10.30;6.97;;;17.10;75.40;;;;;;5034719;28;20102;-68
2023/09/04 04:33:18;;;;;;;10.57;6.65;;;17.10;75.30;;;;;;5030230;28;20546;-68
2023/09/04 04:35:44;;;;;;;9.70;6.70;;;17.00;75.30;;;;;;5032044;28;20362;-68
2023/09/04 04:38:10;;;;;;;10.48;6.90;;;17.10;75.30;;;;;;5031752;28;20026;-68
2023/09/04 04:40:40;;;;;;;9.55;6.97;;;17.10;75.40;;;;;;5058337;28;20025;-68
2023/09/04 04:43:06;;;;;;;11.18;7.18;;;17.00;75.30;;;;;;5032634;28;20064;-68
2023/09/04 04:45:32;;;;;;;9.80;6.55;;;17.00;75.30;;;;;;5029535;28;20465;-68
2023/09/04 04:48:00;;;;;;;9.57;6.60;;;17.10;75.40;;;;;;5040762;28;20023;-68
2023/09/04 04:50:26;;;;;;;11.45;6.90;;;17.00;75.30;;;;;;5039783;28;20039;-69
2023/09/04 04:52:52;;;;;;;11.38;6.60;;;17.00;75.30;;;;;;5036213;28;20383;-68
2023/09/04 04:55:18;;;;;;;9.88;6.15;;;17.00;75.30;;;;;;5040950;28;20025;-67
2023/09/04 04:57:44;;;;;;;9.40;6.35;;;17.00;75.30;;;;;;5032382;28;20040;-67
2023/09/04 05:00:10;;;;;;;10.68;6.60;;;17.00;75.40;;;;;;5045794;28;20084;-67
2023/09/04 05:02:37;;;;;;;10.32;6.85;;;17.00;75.30;;;;;;5036026;28;20021;-67
2023/09/04 05:05:03;;;;;;;10.27;6.93;;;17.00;75.30;;;;;;5035640;28;20120;-67
2023/09/04 05:07:30;;;;;;;11.13;7.05;;;17.00;75.30;;;;;;5031093;28;20164;-67
2023/09/04 05:09:57;;;;;;;9.73;6.88;;;17.00;75.30;;;;;;5034410;28;20025;-68
2023/09/04 05:12:23;;;;;;;9.98;6.78;;;17.00;75.90;;;;;;5041680;28;20033;-68
2023/09/04 05:14:50;;;;;;;9.05;5.85;;;17.00;75.20;;;;;;5024843;28;20016;-68
2023/09/04 05:17:17;;;;;;;12.40;6.65;;;17.00;75.20;;;;;;5031206;28;20088;-68
2023/09/04 05:19:43;;;;;;;10.50;6.90;;;17.00;75.20;;;;;;5061668;28;20128;-68
2023/09/04 05:22:09;;;;;;;10.35;6.57;;;17.00;75.20;;;;;;5030552;28;20026;-68
2023/09/04 05:24:35;;;;;;;10.00;6.43;;;17.00;75.20;;;;;;5026374;28;20437;-68
2023/09/04 05:27:05;;;;;;;9.57;6.63;;;17.00;75.10;;;;;;5033123;28;20422;-68
2023/09/04 05:29:31;;;;;;;9.73;6.35;;;17.00;75.10;;;;;;5034511;28;20049;-68
2023/09/04 05:31:57;;;;;;;9.95;6.63;;;17.10;75.10;;;;;;5033439;28;20114;-69
2023/09/04 05:34:23;;;;;;;10.65;6.97;;;17.10;75.20;;;;;;5024383;28;20053;-68
2023/09/04 05:36:49;;;;;;;9.60;6.88;;;17.10;75.10;;;;;;5022168;28;20073;-69
2023/09/04 05:39:15;;;;;;;10.77;6.30;;;17.10;75.10;;;;;;5016944;28;20088;-69
2023/09/04 05:41:40;;;;;;;11.48;7.10;;;17.10;75.10;;;;;;5033601;28;20029;-69
2023/09/04 05:44:06;;;;;;;10.05;6.97;;;17.10;75.10;;;;;;5033995;28;20510;-68
2023/09/04 05:46:32;;;;;;;11.55;7.40;;;17.10;75.10;;;;;;5028363;28;20037;-69
2023/09/04 05:48:58;;;;;;;11.10;6.60;;;17.20;75.20;;;;;;5058179;28;20022;-68
2023/09/04 05:51:24;;;;;;;9.95;7.13;;;17.20;75.20;;;;;;5029031;28;20423;-68
2023/09/04 05:53:51;;;;;;;10.52;6.72;;;17.20;75.20;;;;;;5034099;28;20076;-69
2023/09/04 05:56:17;;;;;;;11.27;7.35;;;17.20;75.20;;;;;;5035331;28;20389;-69
2023/09/04 05:58:50;;;;;;;9.80;7.18;;;17.20;75.20;;;;;;5031255;28;20029;-69
2023/09/04 06:01:17;;;;;;;10.57;7.07;;;17.30;75.10;;;;;;5058090;28;20403;-70
2023/09/04 06:03:45;;;;;;;13.88;7.10;;;17.30;75.10;;;;;;5028353;28;20032;-69
2023/09/04 06:06:11;;;;;;;10.93;7.55;;;17.40;75.00;;;;;;5033688;28;20068;-70
2023/09/04 06:08:37;;;;;;;12.13;7.53;;;17.40;74.90;;;;;;5038292;28;20033;-70
2023/09/04 06:11:04;;;;;;;11.00;7.38;;;17.50;74.90;;;;;;5034051;28;20529;-68
2023/09/04 06:13:33;;;;;;;9.98;7.60;;;17.50;74.70;;;;;;5017804;28;20083;-69
2023/09/04 06:16:00;;;;;;;11.20;7.10;;;17.60;74.60;;;;;;5065094;28;20048;-69
2023/09/04 06:18:29;;;;;;;12.25;6.82;;;17.80;74.20;;;;;;5033096;28;20044;-70
2023/09/04 06:20:55;;;;;;;9.23;6.22;;;17.90;74.00;;;;;;5044449;28;20026;-70
2023/09/04 06:23:21;;;;;;;9.77;6.88;;;18.20;73.70;;;;;;5013875;28;20026;-69
2023/09/04 06:25:47;;;;;;;9.68;6.97;;;18.70;72.80;;;;;;5032896;28;20026;-70
2023/09/04 06:28:13;;;;;;;10.40;6.18;;;19.40;71.50;;;;;;5032998;28;20134;-70
2023/09/04 06:30:39;;;;;;;10.93;6.70;;;20.00;70.10;;;;;;5030176;28;20028;-69
2023/09/04 06:33:05;;;;;;;9.43;5.93;;;20.60;68.70;;;;;;5034282;28;20017;-71
2023/09/04 06:35:31;;;;;;;8.82;6.28;;;21.10;67.60;;;;;;5060720;28;20350;-71
2023/09/04 06:37:58;;;;;;;11.10;6.93;;;21.50;66.60;;;;;;5032330;28;20461;-72
2023/09/04 06:40:24;;;;;;;11.50;6.88;;;21.70;65.70;;;;;;5024581;28;20033;-70
2023/09/04 06:42:53;;;;;;;8.68;6.35;;;21.80;65.30;;;;;;5031311;28;20044;-69
2023/09/04 06:45:19;;;;;;;11.55;6.85;;;21.80;65.10;;;;;;5032101;28;20406;-68
2023/09/04 06:47:45;;;;;;;9.23;6.43;;;21.60;65.20;;;;;;5033720;28;20030;-70
2023/09/04 06:50:11;;;;;;;9.98;6.60;;;21.50;65.50;;;;;;5030795;28;20108;-69
2023/09/04 06:52:36;;;;;;;9.65;6.93;;;21.20;65.70;;;;;;5034382;28;20379;-70
2023/09/04 06:55:04;;;;;;;10.32;7.00;;;21.10;66.20;;;;;;5030347;28;20029;-69
2023/09/04 06:57:29;;;;;;;11.27;7.80;;;20.90;66.50;;;;;;5032294;28;20113;-70
2023/09/04 06:59:56;;;;;;;11.43;6.95;;;20.80;67.00;;;;;;5032235;28;20470;-70
2023/09/04 07:02:22;;;;;;;10.10;7.15;;;20.60;66.70;;;;;;5034326;28;20351;-70
2023/09/04 07:04:48;;;;;;;12.30;6.97;;;20.60;66.90;;;;;;5032372;28;20029;-70
2023/09/04 07:07:14;;;;;;;10.75;7.65;;;20.50;67.00;;;;;;5031959;28;20025;-70
2023/09/04 07:09:39;;;;;;;9.73;6.82;;;20.50;67.10;;;;;;5031155;28;20083;-70
2023/09/04 07:12:06;;;;;;;10.98;7.28;;;20.50;67.00;;;;;;5032557;28;20442;-71
2023/09/04 07:14:32;;;;;;;9.85;6.75;;;20.50;67.00;;;;;;5030127;28;20059;-70
2023/09/04 07:16:58;;;;;;;10.30;7.53;;;20.50;66.90;;;;;;5033134;28;20051;-70
2023/09/04 07:19:24;;;;;;;12.25;7.45;;;20.60;67.10;;;;;;5028819;28;20021;-67
2023/09/04 07:21:50;;;;;;;10.07;7.53;;;20.60;67.00;;;;;;5031565;28;20040;-69
2023/09/04 07:24:16;;;;;;;10.45;7.22;;;20.50;67.00;;;;;;5030387;28;20032;-69
2023/09/04 07:26:42;;;;;;;10.55;7.10;;;20.60;67.20;;;;;;5029728;28;20378;-68
2023/09/04 07:29:08;;;;;;;11.07;7.40;;;20.60;67.10;;;;;;5015497;28;20084;-69
2023/09/04 07:31:34;;;;;;;11.98;7.40;;;20.70;67.00;;;;;;5038103;28;20038;-71
2023/09/04 07:34:01;;;;;;;10.48;7.43;;;20.70;66.90;;;;;;5019131;28;20030;-70
2023/09/04 07:36:27;;;;;;;12.80;7.10;;;20.70;66.90;;;;;;5046056;28;20030;-70
2023/09/04 07:38:52;;;;;;;9.73;6.82;;;20.80;66.80;;;;;;5039566;28;20447;-70
2023/09/04 07:41:18;;;;;;;11.40;6.75;;;20.80;66.60;;;;;;5016631;28;20037;-70
2023/09/04 07:43:44;;;;;;;10.30;6.85;;;20.90;66.30;;;;;;5031712;28;20034;-68
2023/09/04 07:46:10;;;;;;;10.88;6.68;;;21.10;66.30;;;;;;5032298;28;20036;-69
2023/09/04 07:48:35;;;;;;;9.65;6.00;;;21.10;66.20;;;;;;5033220;28;20021;-68
2023/09/04 07:51:03;;;;;;;11.52;7.15;;;21.30;66.00;;;;;;5023438;28;20073;-68
2023/09/04 07:53:29;;;;;;;11.77;7.20;;;21.50;65.70;;;;;;5031421;28;20045;-68
2023/09/04 07:55:55;;;;;;;10.95;7.22;;;21.70;65.50;;;;;;5030508;28;20084;-68
2023/09/04 07:58:21;;;;;;;10.68;6.72;;;21.90;65.30;;;;;;5033724;28;20443;-68
2023/09/04 08:00:49;;;;;;;9.18;5.75;;;22.10;65.00;;;;;;5027471;28;20342;-68
2023/09/04 08:03:15;;;;;;;9.23;6.43;;;22.20;64.60;;;;;;5012038;28;20461;-68
2023/09/04 08:05:41;;;;;;;9.88;6.55;;;22.40;64.50;;;;;;5030362;28;20116;-68
2023/09/04 08:08:09;;;;;;;10.68;6.47;;;22.50;64.10;;;;;;5030462;28;20029;-67
2023/09/04 08:10:40;;;;;;;9.57;6.05;;;22.70;64.00;;;;;;5031318;28;20052;-67
2023/09/04 08:13:14;;;;;;;8.13;5.57;;;22.90;63.70;;;;;;5033497;28;20358;-68
2023/09/04 08:15:40;;;;;;;10.68;6.47;;;23.00;63.20;;;;;;5030602;28;20362;-68
2023/09/04 08:18:07;;;;;;;8.70;5.47;;;23.20;63.10;;;;;;5033340;28;20053;-68
2023/09/04 08:20:33;;;;;;;8.82;5.50;;;23.40;62.60;;;;;;5026607;28;20041;-68
2023/09/04 08:22:59;;;;;;;9.45;6.30;;;23.50;62.30;;;;;;5029072;28;20362;-68
2023/09/04 08:25:25;;;;;;;9.85;6.38;;;23.70;62.10;;;;;;5023384;28;20037;-68
2023/09/04 08:27:50;;;;;;;10.55;5.75;;;23.90;61.80;;;;;;5030867;28;20040;-67
2023/09/04 08:30:16;;;;;;;9.07;6.00;;;24.00;61.80;;;;;;5031055;28;20112;-68
2023/09/04 08:32:42;;;;;;;8.68;5.55;;;24.10;61.60;;;;;;5032415;28;20025;-68
2023/09/04 08:35:08;;;;;;;8.30;4.95;;;24.30;61.20;;;;;;5027206;28;20112;-68
2023/09/04 08:37:33;;;;;;;8.82;5.22;;;24.40;60.90;;;;;;5031357;28;20037;-68
2023/09/04 08:39:59;;;;;;;8.88;5.40;;;24.60;60.70;;;;;;5030597;28;20025;-68
2023/09/04 08:42:28;;;;;;;8.43;4.43;;;24.70;60.40;;;;;;5032573;28;20065;-68
2023/09/04 08:44:55;;;;;;;8.73;5.43;;;24.80;60.10;;;;;;5027266;28;20040;-69
2023/09/04 08:47:21;;;;;;;8.10;5.15;;;24.90;59.80;;;;;;5031273;28;20104;-68
2023/09/04 08:49:47;;;;;;;8.13;5.05;;;25.10;59.60;;;;;;5029112;28;20442;-68
2023/09/04 08:52:13;;;;;;;7.60;4.80;;;25.10;59.40;;;;;;5041985;28;20907;-68
2023/09/04 08:54:40;;;;;;;9.27;6.07;;;25.20;59.20;;;;;;5028458;28;20014;-68
2023/09/04 08:57:07;;;;;;;9.23;4.60;;;25.30;59.00;;;;;;5027655;28;20022;-69
2023/09/04 08:59:33;;;;;;;8.57;4.75;;;25.30;58.90;;;;;;5031411;28;20025;-68
2023/09/04 09:02:03;;;;;;;8.85;4.00;;;25.30;58.90;;;;;;5029128;28;20407;-68
2023/09/04 09:04:30;;;;;;;7.80;4.57;;;25.40;58.90;;;;;;5037086;28;20022;-68
2023/09/04 09:06:57;;;;;;;8.82;4.78;;;25.50;58.70;;;;;;5026695;28;20361;-68
2023/09/04 09:09:24;;;;;;;9.50;4.70;;;25.60;58.60;;;;;;5036400;28;20430;-68
2023/09/04 09:11:53;;;;;;;8.60;5.20;;;25.70;58.40;;;;;;5035518;28;20343;-68
2023/09/04 09:14:29;;;;;;;8.55;5.20;;;25.80;58.10;;;;;;5035465;28;20128;-68
2023/09/04 09:17:15;;;;;;;9.00;4.45;;;25.90;57.90;;;;;;5035586;28;20340;-68
2023/09/04 09:19:43;;;;;;;8.77;5.43;;;26.00;57.80;;;;;;5034617;28;20079;-68
2023/09/04 09:22:12;;;;;;;9.00;4.95;;;26.00;57.70;;;;;;5035236;28;20183;-68
2023/09/04 09:25:01;;;;;;;7.55;4.55;;;26.10;57.70;;;;;;5035258;28;20029;-67
2023/09/04 09:27:29;;;;;;;7.88;4.80;;;26.20;57.60;;;;;;5031108;28;20052;-68
2023/09/04 09:29:58;;;;;;;10.30;5.35;;;26.30;57.40;;;;;;5028867;28;20071;-68
2023/09/04 09:32:28;;;;;;;7.10;4.40;;;26.40;57.50;;;;;;5034902;28;20335;-68
2023/09/04 09:34:55;;;;;;;8.70;4.38;;;26.50;57.40;;;;;;5035473;28;20036;-68
2023/09/04 09:37:23;;;;;;;6.85;3.90;;;26.50;57.10;;;;;;5035222;28;20027;-68
2023/09/04 09:39:49;;;;;;;8.20;4.18;;;26.60;56.90;;;;;;5018716;28;20021;-68
2023/09/04 09:42:15;;;;;;;10.80;4.40;;;26.60;56.90;;;;;;5035988;28;20190;-68
2023/09/04 09:44:41;;;;;;;8.07;4.45;;;26.70;56.90;;;;;;5036027;28;20091;-68
2023/09/04 09:47:09;;;;;;;7.47;4.35;;;26.70;56.60;;;;;;5035301;28;20087;-68
2023/09/04 09:49:36;;;;;;;6.97;4.22;;;26.80;56.50;;;;;;5034799;28;20033;-68
2023/09/04 09:52:05;;;;;;;8.20;4.32;;;26.80;56.30;;;;;;5018278;28;20036;-68
2023/09/04 09:54:38;;;;;;;8.07;4.47;;;26.90;56.20;;;;;;5036295;28;20044;-69
2023/09/04 09:57:15;;;;;;;7.05;3.92;;;27.00;56.10;;;;;;5051686;28;20064;-68
2023/09/04 09:59:45;;;;;;;7.07;3.90;;;27.00;56.60;;;;;;5031032;28;20036;-68
2023/09/04 10:02:27;;;;;;;8.02;3.58;;;27.10;56.00;;;;;;5018075;28;20025;-68
2023/09/04 10:04:53;;;;;;;5.50;2.72;;;27.10;55.80;;;;;;5035272;28;20523;-68
2023/09/04 10:07:26;;;;;;;6.63;2.72;;;27.00;55.50;;;;;;5035627;28;20084;-68
2023/09/04 10:10:03;;;;;;;5.82;2.90;;;27.00;55.00;;;;;;5017504;28;20354;-68
2023/09/04 10:12:49;;;;;;;6.50;2.90;;;27.00;54.60;;;;;;5034552;28;20030;-68
2023/09/04 10:15:25;;;;;;;6.47;2.95;;;26.90;54.30;;;;;;5031815;28;20040;-68
2023/09/04 10:18:13;;;;;;;6.13;2.80;;;26.90;54.30;;;;;;5035698;28;20427;-68
2023/09/04 10:20:41;;;;;;;6.45;2.75;;;26.90;53.70;;;;;;5034063;28;20040;-68
2023/09/04 10:23:08;;;;;;;5.72;3.00;;;26.80;54.10;;;;;;5034051;28;20083;-67
2023/09/04 10:26:02;;;;;;;6.07;2.58;;;26.80;54.10;;;;;;5035710;28;20033;-68
2023/09/04 10:28:36;;;;;;;5.63;2.50;;;26.90;53.80;;;;;;5032678;28;20364;-68
2023/09/04 10:31:03;;;;;;;5.22;2.80;;;26.90;53.70;;;;;;5033136;28;20029;-67
2023/09/04 10:33:29;;;;;;;5.90;2.83;;;27.00;53.80;;;;;;5025126;28;20025;-68
2023/09/04 10:35:55;;;;;;;7.07;3.00;;;26.90;53.80;;;;;;5035453;28;20025;-68
2023/09/04 10:38:25;;;;;;;6.10;3.08;;;26.90;53.80;;;;;;5028576;28;20057;-68
2023/09/04 10:40:51;;;;;;;6.20;3.03;;;26.90;53.80;;;;;;5026455;28;20025;-68
2023/09/04 10:43:18;;;;;;;8.32;3.08;;;26.90;53.80;;;;;;5033658;28;20037;-68
2023/09/04 10:46:07;;;;;;;5.72;2.80;;;26.90;53.90;;;;;;5034009;28;20446;-68
2023/09/04 10:48:50;;;;;;;8.75;3.05;;;26.90;54.00;;;;;;5033947;28;20029;-68
2023/09/04 10:51:30;;;;;;;8.27;2.65;;;26.90;53.80;;;;;;5034074;28;20382;-68
2023/09/04 10:53:59;;;;;;;5.97;2.90;;;26.90;54.20;;;;;;5033284;28;20042;-68
2023/09/04 10:56:25;;;;;;;6.03;2.75;;;27.00;53.30;;;;;;5035271;28;20029;-68
2023/09/04 10:58:59;;;;;;;7.13;2.90;;;26.90;53.30;;;;;;5034496;28;20056;-68
2023/09/04 11:01:33;;;;;;;7.03;2.95;;;26.90;53.40;;;;;;5034660;28;20048;-68
2023/09/04 11:04:04;;;;;;;6.82;2.63;;;26.90;53.40;;;;;;5026950;28;20037;-68
2023/09/04 11:06:32;;;;;;;;;;;27.00;53.50;;;;;;5034988;28;20041;-68
2023/09/04 11:09:01;;;;;;;6.53;2.70;;;27.00;53.60;;;;;;5050356;28;19963;-68
2023/09/04 11:11:27;;;;;;;6.35;3.30;;;27.00;53.50;;;;;;5032032;28;20057;-68
2023/09/04 11:14:01;;;;;;;5.78;2.70;;;27.00;53.70;;;;;;5030275;28;20018;-68
2023/09/04 11:16:32;;;;;;;7.60;2.97;;;27.00;53.50;;;;;;5022298;28;20053;-68
2023/09/04 11:19:18;;;;;;;6.00;2.45;;;27.00;53.40;;;;;;5024972;28;20466;-68
2023/09/04 11:21:46;;;;;;;6.30;2.72;;;26.90;54.20;;;;;;5020859;28;20045;-68
2023/09/04 11:24:12;;;;;;;6.10;2.88;;;26.90;53.90;;;;;;5041336;28;20029;-68
2023/09/04 11:26:38;;;;;;;6.20;3.08;;;26.90;53.90;;;;;;5019192;28;20026;-68
2023/09/04 11:29:05;;;;;;;5.88;2.80;;;27.00;54.10;;;;;;5025065;28;20374;-70
2023/09/04 11:31:32;;;;;;;5.53;2.40;;;26.90;54.10;;;;;;5022302;28;20029;-70
2023/09/04 11:33:59;;;;;;;7.05;3.10;;;27.00;54.40;;;;;;5021508;28;20443;-70
2023/09/04 11:36:25;;;;;;;5.80;2.97;;;27.00;54.10;;;;;;5026666;28;20496;-70
2023/09/04 11:39:04;;;;;;;5.75;2.72;;;26.90;54.00;;;;;;5039941;28;20439;-70
2023/09/04 11:41:30;;;;;;;7.07;3.22;;;26.90;53.90;;;;;;5027161;28;20049;-71
2023/09/04 11:43:56;;;;;;;6.97;3.30;;;26.90;54.10;;;;;;5026960;28;21933;-71
2023/09/04 11:46:22;;;;;;;6.20;3.28;;;26.90;54.30;;;;;;5027993;28;20331;-71
2023/09/04 11:48:48;;;;;;;6.25;2.97;;;26.90;54.40;;;;;;5026663;28;20021;-70
2023/09/04 11:51:14;;;;;;;6.07;2.92;;;26.90;54.20;;;;;;5026459;28;20109;-71
2023/09/04 11:53:40;;;;;;;7.07;3.20;;;26.90;54.20;;;;;;5027917;28;20453;-70
2023/09/04 11:56:06;;;;;;;6.55;3.25;;;26.90;54.30;;;;;;5027167;28;20040;-70
2023/09/04 11:58:33;;;;;;;5.93;3.17;;;26.90;54.30;;;;;;5044666;28;20108;-68
2023/09/04 12:00:59;;;;;;;5.80;3.08;;;26.90;54.40;;;;;;5017106;28;20041;-71
2023/09/04 12:03:25;;;;;;;6.18;3.08;;;27.00;54.60;;;;;;5034519;28;20069;-72
2023/09/04 12:05:53;;;;;;;7.53;4.05;;;27.00;54.60;;;;;;5021715;28;20049;-72
2023/09/04 12:08:19;;;;;;;6.85;3.20;;;27.00;54.50;;;;;;5017144;28;20037;-72
2023/09/04 12:10:45;;;;;;;7.13;3.90;;;26.90;54.50;;;;;;5016859;28;20414;-71
2023/09/04 12:13:12;;;;;;;6.70;3.35;;;26.90;54.50;;;;;;5016312;28;20022;-72
2023/09/04 12:15:38;;;;;;;6.55;3.38;;;26.80;54.70;;;;;;5019301;28;20029;-71
2023/09/04 12:18:06;;;;;;;6.80;3.65;;;26.80;54.90;;;;;;5015831;28;20409;-72
2023/09/04 12:20:35;;;;;;;6.93;3.85;;;26.80;54.90;;;;;;5020279;28;20038;-72
2023/09/04 12:23:02;;;;;;;7.18;3.95;;;26.70;54.90;;;;;;5014930;28;20036;-72
2023/09/04 12:25:36;;;;;;;7.28;3.40;;;26.70;55.00;;;;;;5048199;28;20451;-70
2023/09/04 12:28:06;;;;;;;7.50;3.85;;;26.60;55.10;;;;;;5016671;28;20022;-70
2023/09/04 12:30:40;;;;;;;7.87;4.27;;;26.60;55.20;;;;;;5018909;28;20447;-69
2023/09/04 12:33:11;;;;;;;6.28;3.47;;;26.50;55.00;;;;;;5016745;28;20293;-69
2023/09/04 12:35:38;;;;;;;7.32;3.45;;;26.50;55.20;;;;;;5016750;28;20450;-69
2023/09/04 12:38:04;;;;;;;6.55;3.20;;;26.40;55.00;;;;;;5016310;28;20044;-69
2023/09/04 12:40:31;;;;;;;7.55;3.63;;;26.40;55.30;;;;;;5025099;28;20025;-69
2023/09/04 12:42:57;;;;;;;7.30;4.03;;;26.30;55.40;;;;;;5019954;28;20037;-70
2023/09/04 12:45:23;;;;;;;7.28;3.80;;;26.30;55.60;;;;;;5020303;28;20025;-69
2023/09/04 12:47:48;;;;;;;7.18;3.53;;;26.30;55.70;;;;;;5034495;28;20065;-71